LFRC

Cherbourg-Maupertus Airport

Cherbourg/Maupertus, France
TAF LFRC 141400Z 1415/1424 15010KT 9999 FEW025
Issued Valid From Valid To
Dec-14 @ 14:00 UTC
(8 hours ago)
Dec-14 @ 15:00 UTC
(7 hours ago)
Dec-15 @ 00:00 UTC
(in 2 hours)
Dec-14 @ 15:00 to Dec-15 @ 00:00
TAF LFRC 141400Z 1415/1424 15010KT 9999 FEW025
Wind Visibility Clouds
150° at 10 knots 10,000+ meters
  • Few at 2,500' AGL
TAF LFRC 141400Z 1415/1424 15010KT 9999 FEW025
Issued Dec-14 @ 14:00 UTC
(8 hours ago)
Valid From Dec-14 @ 15:00 UTC
(7 hours ago)
Valid To Dec-15 @ 00:00 UTC
(in 2 hours)
Dec-14 @ 15:00 - Dec-15 @ 00:00
Wind Visibility
150° at 10 knots 10,000+ meters
Clouds
  • Few at 2,500' AGL